sensor_id;sensor_type;location;lat;lon;timestamp;temperature;humidity
71047;SHT31;58703;48.978;8.982;2023-12-20T00:01:50;4.99;99.99
71047;SHT31;58703;48.978;8.982;2023-12-20T00:04:16;4.78;99.99
71047;SHT31;58703;48.978;8.982;2023-12-20T00:06:42;4.71;99.99
71047;SHT31;58703;48.978;8.982;2023-12-20T00:09:07;4.56;99.99
71047;SHT31;58703;48.978;8.982;2023-12-20T00:11:34;4.56;99.99
71047;SHT31;58703;48.978;8.982;2023-12-20T00:14:00;4.56;99.99
71047;SHT31;58703;48.978;8.982;2023-12-20T00:16:27;4.48;99.99
71047;SHT31;58703;48.978;8.982;2023-12-20T00:18:52;4.43;99.99
71047;SHT31;58703;48.978;8.982;2023-12-20T00:21:18;4.44;99.99
71047;SHT31;58703;48.978;8.982;2023-12-20T00:23:45;4.50;99.99
71047;SHT31;58703;48.978;8.982;2023-12-20T00:26:12;4.69;99.99
71047;SHT31;58703;48.978;8.982;2023-12-20T00:28:38;4.84;99.99
71047;SHT31;58703;48.978;8.982;2023-12-20T00:31:04;4.71;99.99
71047;SHT31;58703;48.978;8.982;2023-12-20T00:33:31;4.74;99.99
71047;SHT31;58703;48.978;8.982;2023-12-20T00:35:57;4.56;99.99
71047;SHT31;58703;48.978;8.982;2023-12-20T00:38:24;4.56;99.99
71047;SHT31;58703;48.978;8.982;2023-12-20T00:40:50;4.47;99.99
71047;SHT31;58703;48.978;8.982;2023-12-20T00:43:17;4.62;99.99
71047;SHT31;58703;48.978;8.982;2023-12-20T00:45:43;4.71;99.99
71047;SHT31;58703;48.978;8.982;2023-12-20T00:48:09;4.69;99.99
71047;SHT31;58703;48.978;8.982;2023-12-20T00:50:36;4.56;99.99
71047;SHT31;58703;48.978;8.982;2023-12-20T00:53:03;4.53;99.99
71047;SHT31;58703;48.978;8.982;2023-12-20T00:55:30;4.50;99.99
71047;SHT31;58703;48.978;8.982;2023-12-20T00:57:56;4.47;99.99
71047;SHT31;58703;48.978;8.982;2023-12-20T01:00:23;4.54;99.99
71047;SHT31;58703;48.978;8.982;2023-12-20T01:02:49;4.54;99.99
71047;SHT31;58703;48.978;8.982;2023-12-20T01:05:18;4.74;99.99
71047;SHT31;58703;48.978;8.982;2023-12-20T01:07:43;5.07;99.99
71047;SHT31;58703;48.978;8.982;2023-12-20T01:10:09;5.19;99.99
71047;SHT31;58703;48.978;8.982;2023-12-20T01:12:36;5.15;99.99
71047;SHT31;58703;48.978;8.982;2023-12-20T01:15:02;5.15;99.99
71047;SHT31;58703;48.978;8.982;2023-12-20T01:17:27;5.20;99.99
71047;SHT31;58703;48.978;8.982;2023-12-20T01:19:53;5.19;99.99
71047;SHT31;58703;48.978;8.982;2023-12-20T01:22:18;5.16;99.99
71047;SHT31;58703;48.978;8.982;2023-12-20T01:24:44;5.28;99.99
71047;SHT31;58703;48.978;8.982;2023-12-20T01:27:09;5.44;99.99
71047;SHT31;58703;48.978;8.982;2023-12-20T01:29:35;5.49;99.99
71047;SHT31;58703;48.978;8.982;2023-12-20T01:32:00;5.50;99.99
71047;SHT31;58703;48.978;8.982;2023-12-20T01:34:26;5.52;99.99
71047;SHT31;58703;48.978;8.982;2023-12-20T01:36:52;5.53;99.99
71047;SHT31;58703;48.978;8.982;2023-12-20T01:39:17;5.56;99.99
71047;SHT31;58703;48.978;8.982;2023-12-20T01:41:43;5.63;99.99
71047;SHT31;58703;48.978;8.982;2023-12-20T01:44:08;5.73;99.99
71047;SHT31;58703;48.978;8.982;2023-12-20T01:46:35;5.69;99.99
71047;SHT31;58703;48.978;8.982;2023-12-20T01:49:01;5.67;99.99
71047;SHT31;58703;48.978;8.982;2023-12-20T01:51:26;5.66;99.99
71047;SHT31;58703;48.978;8.982;2023-12-20T01:53:55;5.75;99.99
71047;SHT31;58703;48.978;8.982;2023-12-20T01:56:20;5.77;99.99
71047;SHT31;58703;48.978;8.982;2023-12-20T01:58:47;5.69;99.99
71047;SHT31;58703;48.978;8.982;2023-12-20T02:01:13;5.67;99.99
71047;SHT31;58703;48.978;8.982;2023-12-20T02:03:40;5.63;99.99
71047;SHT31;58703;48.978;8.982;2023-12-20T02:06:07;5.78;99.99
71047;SHT31;58703;48.978;8.982;2023-12-20T02:08:33;5.73;99.99
71047;SHT31;58703;48.978;8.982;2023-12-20T02:10:59;5.70;99.99
71047;SHT31;58703;48.978;8.982;2023-12-20T02:13:25;5.70;99.99
71047;SHT31;58703;48.978;8.982;2023-12-20T02:15:52;5.67;99.99
71047;SHT31;58703;48.978;8.982;2023-12-20T02:18:18;5.50;99.99
71047;SHT31;58703;48.978;8.982;2023-12-20T02:20:43;5.56;99.99
71047;SHT31;58703;48.978;8.982;2023-12-20T02:23:09;5.54;99.99
71047;SHT31;58703;48.978;8.982;2023-12-20T02:25:34;5.57;99.99
71047;SHT31;58703;48.978;8.982;2023-12-20T02:28:01;5.59;99.99
71047;SHT31;58703;48.978;8.982;2023-12-20T02:30:27;5.54;99.99
71047;SHT31;58703;48.978;8.982;2023-12-20T02:32:53;5.61;99.99
71047;SHT31;58703;48.978;8.982;2023-12-20T02:35:19;5.67;99.99
71047;SHT31;58703;48.978;8.982;2023-12-20T02:37:44;5.63;99.99
71047;SHT31;58703;48.978;8.982;2023-12-20T02:40:10;5.56;99.99
71047;SHT31;58703;48.978;8.982;2023-12-20T02:42:36;5.52;99.99
71047;SHT31;58703;48.978;8.982;2023-12-20T02:45:01;5.56;99.16
71047;SHT31;58703;48.978;8.982;2023-12-20T02:47:27;5.47;99.99
71047;SHT31;58703;48.978;8.982;2023-12-20T02:49:52;5.42;99.99
71047;SHT31;58703;48.978;8.982;2023-12-20T02:52:18;5.40;99.99
71047;SHT31;58703;48.978;8.982;2023-12-20T02:54:44;5.32;99.99
71047;SHT31;58703;48.978;8.982;2023-12-20T02:57:09;5.38;99.99
71047;SHT31;58703;48.978;8.982;2023-12-20T02:59:35;5.33;99.99
71047;SHT31;58703;48.978;8.982;2023-12-20T03:02:00;5.38;99.99
71047;SHT31;58703;48.978;8.982;2023-12-20T03:04:26;5.38;99.99
71047;SHT31;58703;48.978;8.982;2023-12-20T03:06:52;5.50;98.93
71047;SHT31;58703;48.978;8.982;2023-12-20T03:09:18;5.40;99.99
71047;SHT31;58703;48.978;8.982;2023-12-20T03:11:43;5.36;99.99
71047;SHT31;58703;48.978;8.982;2023-12-20T03:14:09;5.36;99.99
71047;SHT31;58703;48.978;8.982;2023-12-20T03:16:34;5.39;99.99
71047;SHT31;58703;48.978;8.982;2023-12-20T03:19:00;5.39;99.99
71047;SHT31;58703;48.978;8.982;2023-12-20T03:21:25;5.36;99.99
71047;SHT31;58703;48.978;8.982;2023-12-20T03:23:51;5.39;99.99
71047;SHT31;58703;48.978;8.982;2023-12-20T03:26:16;5.36;99.99
71047;SHT31;58703;48.978;8.982;2023-12-20T03:28:42;5.33;99.99
71047;SHT31;58703;48.978;8.982;2023-12-20T03:31:09;5.28;99.99
71047;SHT31;58703;48.978;8.982;2023-12-20T03:33:34;5.29;99.99
71047;SHT31;58703;48.978;8.982;2023-12-20T03:36:00;5.28;99.99
71047;SHT31;58703;48.978;8.982;2023-12-20T03:38:25;5.28;99.99
71047;SHT31;58703;48.978;8.982;2023-12-20T03:40:51;5.25;99.99
71047;SHT31;58703;48.978;8.982;2023-12-20T03:43:17;5.22;99.99
71047;SHT31;58703;48.978;8.982;2023-12-20T03:45:42;5.23;99.99
71047;SHT31;58703;48.978;8.982;2023-12-20T03:48:08;5.28;99.99
71047;SHT31;58703;48.978;8.982;2023-12-20T03:50:34;5.20;99.99
71047;SHT31;58703;48.978;8.982;2023-12-20T03:53:00;5.19;99.99
71047;SHT31;58703;48.978;8.982;2023-12-20T03:55:25;5.23;99.79
71047;SHT31;58703;48.978;8.982;2023-12-20T03:57:51;5.22;99.99
71047;SHT31;58703;48.978;8.982;2023-12-20T04:00:17;5.13;99.99
71047;SHT31;58703;48.978;8.982;2023-12-20T04:02:43;5.18;99.99
71047;SHT31;58703;48.978;8.982;2023-12-20T04:05:09;5.23;99.55
71047;SHT31;58703;48.978;8.982;2023-12-20T04:07:36;5.18;99.99
71047;SHT31;58703;48.978;8.982;2023-12-20T04:10:02;5.16;99.99
71047;SHT31;58703;48.978;8.982;2023-12-20T04:12:29;5.09;99.99
71047;SHT31;58703;48.978;8.982;2023-12-20T04:14:54;5.16;99.99
71047;SHT31;58703;48.978;8.982;2023-12-20T04:17:20;5.15;99.99
71047;SHT31;58703;48.978;8.982;2023-12-20T04:19:50;5.13;99.99
71047;SHT31;58703;48.978;8.982;2023-12-20T04:22:19;5.09;99.99
71047;SHT31;58703;48.978;8.982;2023-12-20T04:24:45;5.26;99.99
71047;SHT31;58703;48.978;8.982;2023-12-20T04:27:11;5.20;99.99
71047;SHT31;58703;48.978;8.982;2023-12-20T04:29:37;5.20;99.99
71047;SHT31;58703;48.978;8.982;2023-12-20T04:32:03;5.22;99.99
71047;SHT31;58703;48.978;8.982;2023-12-20T04:34:29;5.20;99.99
71047;SHT31;58703;48.978;8.982;2023-12-20T04:36:54;5.28;99.99
71047;SHT31;58703;48.978;8.982;2023-12-20T04:39:20;5.29;99.99
71047;SHT31;58703;48.978;8.982;2023-12-20T04:41:45;5.50;99.60
71047;SHT31;58703;48.978;8.982;2023-12-20T04:44:13;5.46;99.87
71047;SHT31;58703;48.978;8.982;2023-12-20T04:46:38;5.40;99.99
71047;SHT31;58703;48.978;8.982;2023-12-20T04:49:04;5.40;99.99
71047;SHT31;58703;48.978;8.982;2023-12-20T04:51:33;5.36;99.99
71047;SHT31;58703;48.978;8.982;2023-12-20T04:53:59;5.36;99.99
71047;SHT31;58703;48.978;8.982;2023-12-20T04:56:25;5.46;99.99
71047;SHT31;58703;48.978;8.982;2023-12-20T04:58:50;5.43;99.99
71047;SHT31;58703;48.978;8.982;2023-12-20T05:01:16;5.46;99.99
71047;SHT31;58703;48.978;8.982;2023-12-20T05:03:42;5.50;99.99
71047;SHT31;58703;48.978;8.982;2023-12-20T05:06:08;5.43;99.99
71047;SHT31;58703;48.978;8.982;2023-12-20T05:08:33;5.40;99.99
71047;SHT31;58703;48.978;8.982;2023-12-20T05:10:59;5.36;99.99
71047;SHT31;58703;48.978;8.982;2023-12-20T05:13:24;5.35;99.99
71047;SHT31;58703;48.978;8.982;2023-12-20T05:15:50;5.46;99.99
71047;SHT31;58703;48.978;8.982;2023-12-20T05:18:16;5.42;99.99
71047;SHT31;58703;48.978;8.982;2023-12-20T05:20:41;5.46;99.99
71047;SHT31;58703;48.978;8.982;2023-12-20T05:23:07;5.46;99.99
71047;SHT31;58703;48.978;8.982;2023-12-20T05:25:34;5.43;99.99
71047;SHT31;58703;48.978;8.982;2023-12-20T05:28:01;5.47;99.99
71047;SHT31;58703;48.978;8.982;2023-12-20T05:30:27;5.44;99.99
71047;SHT31;58703;48.978;8.982;2023-12-20T05:32:52;5.49;99.99
71047;SHT31;58703;48.978;8.982;2023-12-20T05:35:19;5.49;99.99
71047;SHT31;58703;48.978;8.982;2023-12-20T05:37:45;5.47;99.99
71047;SHT31;58703;48.978;8.982;2023-12-20T05:40:12;5.43;99.99
71047;SHT31;58703;48.978;8.982;2023-12-20T05:42:38;5.39;99.99
71047;SHT31;58703;48.978;8.982;2023-12-20T05:45:05;5.40;99.99
71047;SHT31;58703;48.978;8.982;2023-12-20T05:47:31;5.42;99.99
71047;SHT31;58703;48.978;8.982;2023-12-20T05:49:57;5.43;99.99
71047;SHT31;58703;48.978;8.982;2023-12-20T05:52:22;5.40;99.99
71047;SHT31;58703;48.978;8.982;2023-12-20T05:54:48;5.46;99.99
71047;SHT31;58703;48.978;8.982;2023-12-20T05:57:14;5.39;99.99
71047;SHT31;58703;48.978;8.982;2023-12-20T05:59:39;5.42;99.99
71047;SHT31;58703;48.978;8.982;2023-12-20T06:02:05;5.39;99.99
71047;SHT31;58703;48.978;8.982;2023-12-20T06:04:31;5.42;99.99
71047;SHT31;58703;48.978;8.982;2023-12-20T06:06:56;5.44;99.99
71047;SHT31;58703;48.978;8.982;2023-12-20T06:09:22;5.40;99.99
71047;SHT31;58703;48.978;8.982;2023-12-20T06:11:49;5.38;99.99
71047;SHT31;58703;48.978;8.982;2023-12-20T06:14:14;5.38;99.99
71047;SHT31;58703;48.978;8.982;2023-12-20T06:16:41;5.47;99.99
71047;SHT31;58703;48.978;8.982;2023-12-20T06:19:07;5.46;99.99
71047;SHT31;58703;48.978;8.982;2023-12-20T06:21:34;5.42;99.99
71047;SHT31;58703;48.978;8.982;2023-12-20T06:24:00;5.49;99.99
71047;SHT31;58703;48.978;8.982;2023-12-20T06:26:26;5.44;99.99
71047;SHT31;58703;48.978;8.982;2023-12-20T06:28:52;5.43;99.99
71047;SHT31;58703;48.978;8.982;2023-12-20T06:31:17;5.46;99.99
71047;SHT31;58703;48.978;8.982;2023-12-20T06:33:44;5.49;99.99
71047;SHT31;58703;48.978;8.982;2023-12-20T06:36:14;5.56;99.99
71047;SHT31;58703;48.978;8.982;2023-12-20T06:38:40;5.53;99.99
71047;SHT31;58703;48.978;8.982;2023-12-20T06:41:08;5.50;99.99
71047;SHT31;58703;48.978;8.982;2023-12-20T06:43:33;5.63;99.99
71047;SHT31;58703;48.978;8.982;2023-12-20T06:46:00;5.57;99.99
71047;SHT31;58703;48.978;8.982;2023-12-20T06:48:26;5.64;99.99
71047;SHT31;58703;48.978;8.982;2023-12-20T06:50:53;5.56;99.99
71047;SHT31;58703;48.978;8.982;2023-12-20T06:53:18;5.60;99.99
71047;SHT31;58703;48.978;8.982;2023-12-20T06:55:45;5.52;99.99
71047;SHT31;58703;48.978;8.982;2023-12-20T06:58:11;5.54;99.99
71047;SHT31;58703;48.978;8.982;2023-12-20T07:00:38;5.44;99.99
71047;SHT31;58703;48.978;8.982;2023-12-20T07:03:04;5.49;99.99
71047;SHT31;58703;48.978;8.982;2023-12-20T07:05:30;5.44;99.99
71047;SHT31;58703;48.978;8.982;2023-12-20T07:07:56;5.43;99.99
71047;SHT31;58703;48.978;8.982;2023-12-20T07:10:23;5.39;99.99
71047;SHT31;58703;48.978;8.982;2023-12-20T07:12:50;5.38;99.99
71047;SHT31;58703;48.978;8.982;2023-12-20T07:15:18;5.40;99.99
71047;SHT31;58703;48.978;8.982;2023-12-20T07:17:45;5.32;99.99
71047;SHT31;58703;48.978;8.982;2023-12-20T07:20:11;5.40;99.99
71047;SHT31;58703;48.978;8.982;2023-12-20T07:22:38;5.38;99.99
71047;SHT31;58703;48.978;8.982;2023-12-20T07:25:06;5.39;99.99
71047;SHT31;58703;48.978;8.982;2023-12-20T07:27:32;5.39;99.97
71047;SHT31;58703;48.978;8.982;2023-12-20T07:29:59;5.46;99.09
71047;SHT31;58703;48.978;8.982;2023-12-20T07:32:25;5.42;99.44
71047;SHT31;58703;48.978;8.982;2023-12-20T07:34:52;5.40;99.10
71047;SHT31;58703;48.978;8.982;2023-12-20T07:37:20;5.33;99.24
71047;SHT31;58703;48.978;8.982;2023-12-20T07:39:47;5.29;99.56
71047;SHT31;58703;48.978;8.982;2023-12-20T07:42:13;5.28;99.46
71047;SHT31;58703;48.978;8.982;2023-12-20T07:44:40;5.23;99.26
71047;SHT31;58703;48.978;8.982;2023-12-20T07:47:08;5.23;99.04
71047;SHT31;58703;48.978;8.982;2023-12-20T07:49:33;5.12;99.32
71047;SHT31;58703;48.978;8.982;2023-12-20T07:52:00;5.15;98.98
71047;SHT31;58703;48.978;8.982;2023-12-20T07:54:27;5.15;98.85
71047;SHT31;58703;48.978;8.982;2023-12-20T07:56:54;5.12;98.95
71047;SHT31;58703;48.978;8.982;2023-12-20T07:59:20;5.08;98.94
71047;SHT31;58703;48.978;8.982;2023-12-20T08:01:46;5.13;98.66
71047;SHT31;58703;48.978;8.982;2023-12-20T08:04:11;5.32;97.48
71047;SHT31;58703;48.978;8.982;2023-12-20T08:06:39;5.30;97.29
71047;SHT31;58703;48.978;8.982;2023-12-20T08:09:06;5.38;96.47
71047;SHT31;58703;48.978;8.982;2023-12-20T08:11:32;5.47;95.46
71047;SHT31;58703;48.978;8.982;2023-12-20T08:13:59;5.47;95.42
71047;SHT31;58703;48.978;8.982;2023-12-20T08:16:27;5.46;95.64
71047;SHT31;58703;48.978;8.982;2023-12-20T08:18:54;5.47;94.56
71047;SHT31;58703;48.978;8.982;2023-12-20T08:21:20;5.52;95.10
71047;SHT31;58703;48.978;8.982;2023-12-20T08:23:51;5.56;94.09
71047;SHT31;58703;48.978;8.982;2023-12-20T08:26:19;5.53;94.54
71047;SHT31;58703;48.978;8.982;2023-12-20T08:28:51;5.59;94.24
71047;SHT31;58703;48.978;8.982;2023-12-20T08:31:17;5.63;93.89
71047;SHT31;58703;48.978;8.982;2023-12-20T08:33:46;5.60;94.45
71047;SHT31;58703;48.978;8.982;2023-12-20T08:36:17;5.63;94.25
71047;SHT31;58703;48.978;8.982;2023-12-20T08:38:44;5.67;94.34
71047;SHT31;58703;48.978;8.982;2023-12-20T08:41:11;5.67;95.42
71047;SHT31;58703;48.978;8.982;2023-12-20T08:43:37;5.71;95.28
71047;SHT31;58703;48.978;8.982;2023-12-20T08:46:07;5.69;95.84
71047;SHT31;58703;48.978;8.982;2023-12-20T08:48:35;5.67;95.75
71047;SHT31;58703;48.978;8.982;2023-12-20T08:51:03;5.66;95.94
71047;SHT31;58703;48.978;8.982;2023-12-20T08:53:29;5.69;96.26
71047;SHT31;58703;48.978;8.982;2023-12-20T08:55:58;5.71;96.26
71047;SHT31;58703;48.978;8.982;2023-12-20T08:58:27;5.67;96.43
71047;SHT31;58703;48.978;8.982;2023-12-20T09:00:53;5.74;96.05
71047;SHT31;58703;48.978;8.982;2023-12-20T09:03:20;5.74;96.51
71047;SHT31;58703;48.978;8.982;2023-12-20T09:05:45;5.70;96.15
71047;SHT31;58703;48.978;8.982;2023-12-20T09:08:11;5.74;95.69
71047;SHT31;58703;48.978;8.982;2023-12-20T09:10:37;5.80;95.55
71047;SHT31;58703;48.978;8.982;2023-12-20T09:13:03;5.89;95.27
71047;SHT31;58703;48.978;8.982;2023-12-20T09:15:29;5.86;94.56
71047;SHT31;58703;48.978;8.982;2023-12-20T09:17:57;5.87;94.22
71047;SHT31;58703;48.978;8.982;2023-12-20T09:20:25;5.97;93.55
71047;SHT31;58703;48.978;8.982;2023-12-20T09:22:52;5.91;93.73
71047;SHT31;58703;48.978;8.982;2023-12-20T09:25:18;6.01;93.07
71047;SHT31;58703;48.978;8.982;2023-12-20T09:27:44;6.14;93.24
71047;SHT31;58703;48.978;8.982;2023-12-20T09:30:11;6.15;91.97
71047;SHT31;58703;48.978;8.982;2023-12-20T09:32:38;6.22;91.83
71047;SHT31;58703;48.978;8.982;2023-12-20T09:35:05;6.20;91.66
71047;SHT31;58703;48.978;8.982;2023-12-20T09:37:33;6.14;90.46
71047;SHT31;58703;48.978;8.982;2023-12-20T09:39:59;6.10;90.56
71047;SHT31;58703;48.978;8.982;2023-12-20T09:42:44;6.21;90.69
71047;SHT31;58703;48.978;8.982;2023-12-20T09:45:12;6.24;90.25
71047;SHT31;58703;48.978;8.982;2023-12-20T09:47:42;6.22;89.42
71047;SHT31;58703;48.978;8.982;2023-12-20T09:50:08;6.46;89.94
71047;SHT31;58703;48.978;8.982;2023-12-20T09:52:36;6.50;89.84
71047;SHT31;58703;48.978;8.982;2023-12-20T09:55:04;6.48;88.52
71047;SHT31;58703;48.978;8.982;2023-12-20T09:57:32;6.53;89.18
71047;SHT31;58703;48.978;8.982;2023-12-20T09:59:59;6.61;88.01
71047;SHT31;58703;48.978;8.982;2023-12-20T10:02:26;6.52;87.95
71047;SHT31;58703;48.978;8.982;2023-12-20T10:04:54;6.61;87.63
71047;SHT31;58703;48.978;8.982;2023-12-20T10:07:21;6.69;88.59
71047;SHT31;58703;48.978;8.982;2023-12-20T10:09:48;6.45;87.90
71047;SHT31;58703;48.978;8.982;2023-12-20T10:12:16;6.56;88.03
71047;SHT31;58703;48.978;8.982;2023-12-20T10:14:43;6.61;87.54
71047;SHT31;58703;48.978;8.982;2023-12-20T10:17:10;6.69;86.81
71047;SHT31;58703;48.978;8.982;2023-12-20T10:19:37;6.79;87.38
71047;SHT31;58703;48.978;8.982;2023-12-20T10:22:04;6.82;86.65
71047;SHT31;58703;48.978;8.982;2023-12-20T10:24:30;6.73;86.83
71047;SHT31;58703;48.978;8.982;2023-12-20T10:27:08;6.90;86.25
71047;SHT31;58703;48.978;8.982;2023-12-20T10:29:36;7.01;86.33
71047;SHT31;58703;48.978;8.982;2023-12-20T10:32:27;6.80;85.12
71047;SHT31;58703;48.978;8.982;2023-12-20T10:34:55;6.95;85.47
71047;SHT31;58703;48.978;8.982;2023-12-20T10:37:22;7.17;84.73
71047;SHT31;58703;48.978;8.982;2023-12-20T10:39:50;7.95;84.37
71047;SHT31;58703;48.978;8.982;2023-12-20T10:42:21;7.77;82.77
71047;SHT31;58703;48.978;8.982;2023-12-20T10:44:51;8.03;81.95
71047;SHT31;58703;48.978;8.982;2023-12-20T10:47:20;7.95;80.88
71047;SHT31;58703;48.978;8.982;2023-12-20T10:49:47;8.42;82.33
71047;SHT31;58703;48.978;8.982;2023-12-20T10:52:16;8.06;80.73
71047;SHT31;58703;48.978;8.982;2023-12-20T10:54:44;7.83;81.23
71047;SHT31;58703;48.978;8.982;2023-12-20T10:57:11;8.03;82.14
71047;SHT31;58703;48.978;8.982;2023-12-20T10:59:37;7.52;81.60
71047;SHT31;58703;48.978;8.982;2023-12-20T11:02:05;7.91;83.03
71047;SHT31;58703;48.978;8.982;2023-12-20T11:07:33;6.97;82.93
71047;SHT31;58703;48.978;8.982;2023-12-20T11:10:23;6.89;84.67
71047;SHT31;58703;48.978;8.982;2023-12-20T11:13:15;6.92;83.91
71047;SHT31;58703;48.978;8.982;2023-12-20T11:15:43;6.80;84.46
71047;SHT31;58703;48.978;8.982;2023-12-20T11:18:10;6.79;85.39
71047;SHT31;58703;48.978;8.982;2023-12-20T11:20:38;6.68;84.48
71047;SHT31;58703;48.978;8.982;2023-12-20T11:23:04;6.44;85.66
71047;SHT31;58703;48.978;8.982;2023-12-20T11:25:55;6.59;85.96
71047;SHT31;58703;48.978;8.982;2023-12-20T11:28:23;6.55;86.20
71047;SHT31;58703;48.978;8.982;2023-12-20T11:30:58;6.41;84.85
71047;SHT31;58703;48.978;8.982;2023-12-20T11:33:32;6.45;85.28
71047;SHT31;58703;48.978;8.982;2023-12-20T11:36:00;6.50;85.83
71047;SHT31;58703;48.978;8.982;2023-12-20T11:38:27;6.52;85.47
71047;SHT31;58703;48.978;8.982;2023-12-20T11:40:55;7.10;83.70
71047;SHT31;58703;48.978;8.982;2023-12-20T11:43:39;7.31;83.44
71047;SHT31;58703;48.978;8.982;2023-12-20T11:46:08;7.01;83.18
71047;SHT31;58703;48.978;8.982;2023-12-20T11:48:39;6.77;83.89
71047;SHT31;58703;48.978;8.982;2023-12-20T11:51:14;7.13;84.89
71047;SHT31;58703;48.978;8.982;2023-12-20T11:53:43;7.00;84.27
71047;SHT31;58703;48.978;8.982;2023-12-20T11:56:10;6.93;84.59
71047;SHT31;58703;48.978;8.982;2023-12-20T11:58:36;6.73;84.26
71047;SHT31;58703;48.978;8.982;2023-12-20T12:01:03;6.50;84.06
71047;SHT31;58703;48.978;8.982;2023-12-20T12:03:31;6.49;83.50
71047;SHT31;58703;48.978;8.982;2023-12-20T12:05:58;6.93;84.35
71047;SHT31;58703;48.978;8.982;2023-12-20T12:08:25;7.00;82.68
71047;SHT31;58703;48.978;8.982;2023-12-20T12:10:51;7.03;81.71
71047;SHT31;58703;48.978;8.982;2023-12-20T12:13:18;6.95;82.27
71047;SHT31;58703;48.978;8.982;2023-12-20T12:15:44;7.04;82.62
71047;SHT31;58703;48.978;8.982;2023-12-20T12:18:10;6.85;82.90
71047;SHT31;58703;48.978;8.982;2023-12-20T12:20:38;6.76;82.53
71047;SHT31;58703;48.978;8.982;2023-12-20T12:23:05;6.95;82.79
71047;SHT31;58703;48.978;8.982;2023-12-20T12:25:36;6.93;82.89
71047;SHT31;58703;48.978;8.982;2023-12-20T12:28:06;6.66;83.77
71047;SHT31;58703;48.978;8.982;2023-12-20T12:30:33;6.62;84.17
71047;SHT31;58703;48.978;8.982;2023-12-20T12:33:00;6.50;84.83
71047;SHT31;58703;48.978;8.982;2023-12-20T12:35:27;6.45;85.38
71047;SHT31;58703;48.978;8.982;2023-12-20T12:37:54;6.62;84.72
71047;SHT31;58703;48.978;8.982;2023-12-20T12:40:23;6.71;84.37
71047;SHT31;58703;48.978;8.982;2023-12-20T12:42:49;7.00;84.55
71047;SHT31;58703;48.978;8.982;2023-12-20T12:45:16;7.00;83.83
71047;SHT31;58703;48.978;8.982;2023-12-20T12:47:43;6.86;83.39
71047;SHT31;58703;48.978;8.982;2023-12-20T12:50:09;6.53;84.69
71047;SHT31;58703;48.978;8.982;2023-12-20T12:52:36;6.62;84.99
71047;SHT31;58703;48.978;8.982;2023-12-20T12:55:04;6.82;83.87
71047;SHT31;58703;48.978;8.982;2023-12-20T12:57:32;6.75;83.94
71047;SHT31;58703;48.978;8.982;2023-12-20T12:59:57;7.17;83.04
71047;SHT31;58703;48.978;8.982;2023-12-20T13:02:25;7.48;82.83
71047;SHT31;58703;48.978;8.982;2023-12-20T13:04:52;7.67;82.67
71047;SHT31;58703;48.978;8.982;2023-12-20T13:07:18;7.40;82.21
71047;SHT31;58703;48.978;8.982;2023-12-20T13:09:45;7.50;82.15
71047;SHT31;58703;48.978;8.982;2023-12-20T13:12:11;7.46;81.01
71047;SHT31;58703;48.978;8.982;2023-12-20T13:14:38;7.07;82.94
71047;SHT31;58703;48.978;8.982;2023-12-20T13:17:05;7.26;82.89
71047;SHT31;58703;48.978;8.982;2023-12-20T13:19:31;7.24;82.89
71047;SHT31;58703;48.978;8.982;2023-12-20T13:21:58;6.86;82.86
71047;SHT31;58703;48.978;8.982;2023-12-20T13:24:43;6.64;84.13
71047;SHT31;58703;48.978;8.982;2023-12-20T13:27:13;6.56;84.21
71047;SHT31;58703;48.978;8.982;2023-12-20T13:29:39;6.45;84.68
71047;SHT31;58703;48.978;8.982;2023-12-20T13:32:06;6.44;85.18
71047;SHT31;58703;48.978;8.982;2023-12-20T13:34:33;6.31;85.13
71047;SHT31;58703;48.978;8.982;2023-12-20T13:37:00;6.14;85.33
71047;SHT31;58703;48.978;8.982;2023-12-20T13:39:27;6.20;85.33
71047;SHT31;58703;48.978;8.982;2023-12-20T13:41:54;5.97;86.17
71047;SHT31;58703;48.978;8.982;2023-12-20T13:44:22;5.98;86.53
71047;SHT31;58703;48.978;8.982;2023-12-20T13:46:49;5.95;86.90
71047;SHT31;58703;48.978;8.982;2023-12-20T13:49:16;5.94;86.60
71047;SHT31;58703;48.978;8.982;2023-12-20T13:51:43;5.90;87.13
71047;SHT31;58703;48.978;8.982;2023-12-20T13:54:09;5.83;87.90
71047;SHT31;58703;48.978;8.982;2023-12-20T13:56:37;5.77;88.07
71047;SHT31;58703;48.978;8.982;2023-12-20T13:59:03;5.78;87.83
71047;SHT31;58703;48.978;8.982;2023-12-20T14:01:30;5.66;89.37
71047;SHT31;58703;48.978;8.982;2023-12-20T14:03:55;5.43;90.53
71047;SHT31;58703;48.978;8.982;2023-12-20T14:06:21;5.49;90.81
71047;SHT31;58703;48.978;8.982;2023-12-20T14:08:47;5.42;91.14
71047;SHT31;58703;48.978;8.982;2023-12-20T14:11:15;5.43;90.49
71047;SHT31;58703;48.978;8.982;2023-12-20T14:13:41;5.29;91.74
71047;SHT31;58703;48.978;8.982;2023-12-20T14:16:06;5.15;92.64
71047;SHT31;58703;48.978;8.982;2023-12-20T14:18:33;5.18;92.87
71047;SHT31;58703;48.978;8.982;2023-12-20T14:21:00;5.11;93.29
71047;SHT31;58703;48.978;8.982;2023-12-20T14:23:25;5.16;93.12
71047;SHT31;58703;48.978;8.982;2023-12-20T14:25:51;5.22;91.69
71047;SHT31;58703;48.978;8.982;2023-12-20T14:28:19;5.18;93.24
71047;SHT31;58703;48.978;8.982;2023-12-20T14:30:44;5.16;92.96
71047;SHT31;58703;48.978;8.982;2023-12-20T14:33:10;5.26;92.31
71047;SHT31;58703;48.978;8.982;2023-12-20T14:35:37;5.49;90.23
71047;SHT31;58703;48.978;8.982;2023-12-20T14:38:03;5.44;91.29
71047;SHT31;58703;48.978;8.982;2023-12-20T14:40:30;5.47;91.21
71047;SHT31;58703;48.978;8.982;2023-12-20T14:42:57;5.50;90.64
71047;SHT31;58703;48.978;8.982;2023-12-20T14:45:24;5.44;90.60
71047;SHT31;58703;48.978;8.982;2023-12-20T14:47:52;5.40;91.64
71047;SHT31;58703;48.978;8.982;2023-12-20T14:50:19;5.46;91.05
71047;SHT31;58703;48.978;8.982;2023-12-20T14:52:46;5.56;90.15
71047;SHT31;58703;48.978;8.982;2023-12-20T14:55:13;5.50;90.78
71047;SHT31;58703;48.978;8.982;2023-12-20T14:57:40;5.46;90.91
71047;SHT31;58703;48.978;8.982;2023-12-20T15:00:07;5.26;91.47
71047;SHT31;58703;48.978;8.982;2023-12-20T15:02:34;5.23;92.29
71047;SHT31;58703;48.978;8.982;2023-12-20T15:05:01;5.18;92.42
71047;SHT31;58703;48.978;8.982;2023-12-20T15:07:28;5.15;92.92
71047;SHT31;58703;48.978;8.982;2023-12-20T15:09:55;5.12;92.83
71047;SHT31;58703;48.978;8.982;2023-12-20T15:12:22;5.16;92.73
71047;SHT31;58703;48.978;8.982;2023-12-20T15:14:48;5.08;93.21
71047;SHT31;58703;48.978;8.982;2023-12-20T15:17:15;5.05;93.75
71047;SHT31;58703;48.978;8.982;2023-12-20T15:19:42;5.01;93.91
71047;SHT31;58703;48.978;8.982;2023-12-20T15:22:09;4.98;94.70
71047;SHT31;58703;48.978;8.982;2023-12-20T15:24:37;4.95;94.71
71047;SHT31;58703;48.978;8.982;2023-12-20T15:27:09;4.98;94.59
71047;SHT31;58703;48.978;8.982;2023-12-20T15:29:36;4.96;94.45
71047;SHT31;58703;48.978;8.982;2023-12-20T15:32:02;4.88;95.09
71047;SHT31;58703;48.978;8.982;2023-12-20T15:34:31;4.75;95.30
71047;SHT31;58703;48.978;8.982;2023-12-20T15:36:59;4.74;94.93
71047;SHT31;58703;48.978;8.982;2023-12-20T15:39:26;4.85;94.32
71047;SHT31;58703;48.978;8.982;2023-12-20T15:41:53;4.81;94.84
71047;SHT31;58703;48.978;8.982;2023-12-20T15:44:20;4.93;93.66
71047;SHT31;58703;48.978;8.982;2023-12-20T15:46:46;4.93;93.71